Time;durP1;ratioP1;P1;durP2;ratioP2;P2;SDS_P1;SDS_P2;PMS_P1;PMS_P2;Temp;Humidity;BMP_temperature;BMP_pressure;BME280_temperature;BME280_humidity;BME280_pressure;Samples;Min_cycle;Max_cycle;Signal;HPM_P1;HPM_P2
2024/03/20 00:01:20;;;;;;;49.93;19.77;;;-1.40;1.00;;;;;;4472746;27;658379;-68
2024/03/20 00:04:08;;;;;;;45.08;18.02;;;-1.30;1.00;;;;;;4449906;27;658362;-69
2024/03/20 00:06:55;;;;;;;55.17;23.00;;;-1.50;1.00;;;;;;4480515;27;657590;-69
2024/03/20 00:09:43;;;;;;;54.03;22.30;;;-1.50;1.00;;;;;;4448270;27;657817;-68
2024/03/20 00:12:31;;;;;;;54.77;19.33;;;-1.70;1.00;;;;;;4475278;27;658637;-68
2024/03/20 00:15:18;;;;;;;48.60;20.37;;;-1.70;1.00;;;;;;4460087;27;657700;-68
2024/03/20 00:18:06;;;;;;;45.53;19.50;;;-1.70;1.00;;;;;;4473464;27;658734;-68
2024/03/20 00:20:53;;;;;;;46.90;18.33;;;-1.60;99.90;;;;;;4448792;27;658213;-68
2024/03/20 00:23:40;;;;;;;51.60;18.90;;;-1.50;99.90;;;;;;4473958;27;660088;-68
2024/03/20 00:26:27;;;;;;;41.87;18.17;;;-1.50;99.90;;;;;;4463571;27;658880;-69
2024/03/20 00:29:16;;;;;;;45.20;17.57;;;-1.50;1.00;;;;;;4482132;27;658501;-68
2024/03/20 00:32:03;;;;;;;42.30;17.40;;;-1.50;1.00;;;;;;4454849;27;657858;-68
2024/03/20 00:34:50;;;;;;;42.37;17.27;;;-1.60;1.00;;;;;;4475015;27;658011;-68
2024/03/20 00:37:38;;;;;;;43.33;18.60;;;-1.60;1.00;;;;;;4447255;27;657876;-69
2024/03/20 00:40:25;;;;;;;47.13;18.53;;;-1.70;1.00;;;;;;4470205;27;658804;-68
2024/03/20 00:43:12;;;;;;;48.80;20.20;;;-1.70;99.90;;;;;;4469393;27;657811;-68
2024/03/20 00:46:01;;;;;;;39.47;16.20;;;-1.80;1.00;;;;;;4476111;27;659729;-68
2024/03/20 00:48:48;;;;;;;40.37;17.80;;;-1.70;1.00;;;;;;4453606;27;658299;-69
2024/03/20 00:51:35;;;;;;;41.80;18.43;;;-1.60;1.00;;;;;;4468429;27;658422;-69
2024/03/20 00:54:23;;;;;;;44.55;18.13;;;-1.60;1.00;;;;;;4451400;27;657062;-69
2024/03/20 00:57:10;;;;;;;42.07;17.03;;;-1.60;99.90;;;;;;4466275;27;658298;-68
2024/03/20 00:59:57;;;;;;;41.93;18.30;;;-1.70;99.90;;;;;;4466827;27;658895;-70
2024/03/20 01:02:46;;;;;;;39.10;16.83;;;-1.80;99.90;;;;;;4472636;27;659161;-68
2024/03/20 01:05:33;;;;;;;41.80;18.00;;;-1.90;99.90;;;;;;4446356;27;659400;-69
2024/03/20 01:08:21;;;;;;;52.00;21.93;;;-1.90;1.00;;;;;;4470925;27;658864;-68
2024/03/20 01:11:08;;;;;;;60.27;24.13;;;-2.00;99.90;;;;;;4453157;27;658107;-69
2024/03/20 01:13:55;;;;;;;60.00;25.25;;;-2.00;1.00;;;;;;4481983;27;660096;-68
2024/03/20 01:16:43;;;;;;;65.07;27.40;;;-2.10;99.90;;;;;;4447926;27;657724;-69
2024/03/20 01:19:31;;;;;;;72.70;29.30;;;-2.10;32.30;;;;;;4472504;27;659749;-69
2024/03/20 01:22:18;;;;;;;51.10;21.63;;;-2.10;99.90;;;;;;4446801;27;658554;-68
2024/03/20 01:25:06;;;;;;;59.72;25.17;;;-2.10;99.90;;;;;;4473357;27;659112;-68
2024/03/20 01:27:54;;;;;;;60.13;24.53;;;-2.20;1.00;;;;;;4452684;27;658429;-69
2024/03/20 01:30:41;;;;;;;61.97;23.77;;;-2.10;1.00;;;;;;4471766;27;657818;-68
2024/03/20 01:33:28;;;;;;;51.53;23.20;;;-2.10;27.70;;;;;;4443891;27;657694;-68
2024/03/20 01:36:17;;;;;;;49.10;21.43;;;-2.00;99.90;;;;;;4473913;28;659947;-68
2024/03/20 01:39:04;;;;;;;55.83;23.67;;;-1.90;1.00;;;;;;4452886;28;659027;-68
2024/03/20 01:41:51;;;;;;;52.88;22.70;;;-1.90;99.90;;;;;;4476371;28;657696;-68
2024/03/20 01:44:38;;;;;;;46.77;19.53;;;-2.00;99.90;;;;;;4448528;27;658696;-68
2024/03/20 01:47:26;;;;;;;47.97;18.90;;;-2.10;99.90;;;;;;4469073;28;660057;-68
2024/03/20 01:50:13;;;;;;;36.80;16.07;;;-2.00;36.80;;;;;;4446239;28;659151;-69
2024/03/20 01:53:02;;;;;;;43.60;17.23;;;-2.00;9.30;;;;;;4477832;28;658788;-68
2024/03/20 01:55:49;;;;;;;31.60;14.90;;;-2.00;1.00;;;;;;4455533;27;658567;-68
2024/03/20 01:58:36;;;;;;;34.87;15.67;;;-2.00;1.00;;;;;;4475519;27;657724;-68
2024/03/20 02:01:23;;;;;;;34.13;15.27;;;-2.10;99.90;;;;;;4461290;27;657438;-68
2024/03/20 02:04:10;;;;;;;35.87;16.07;;;-2.00;1.00;;;;;;4475219;27;659711;-68
2024/03/20 02:06:57;;;;;;;35.17;15.00;;;-2.00;99.90;;;;;;4460257;27;657546;-69
2024/03/20 02:09:46;;;;;;;35.57;15.90;;;-2.20;99.90;;;;;;4476897;27;659207;-68
2024/03/20 02:12:33;;;;;;;46.30;20.97;;;-2.20;99.90;;;;;;4448528;27;659640;-68
2024/03/20 02:15:20;;;;;;;55.27;24.07;;;-2.30;99.90;;;;;;4470428;27;659398;-68
2024/03/20 02:18:08;;;;;;;55.20;24.47;;;-2.30;99.90;;;;;;4461540;27;660315;-69
2024/03/20 02:20:55;;;;;;;70.23;30.20;;;-2.30;99.90;;;;;;4470478;27;658596;-68
2024/03/20 02:23:44;;;;;;;45.65;21.27;;;-2.20;1.00;;;;;;4460613;27;659207;-69
2024/03/20 02:26:31;;;;;;;42.90;20.10;;;-2.20;1.00;;;;;;4485633;27;657718;-68
2024/03/20 02:29:18;;;;;;;43.25;18.02;;;-2.20;1.00;;;;;;4462789;27;657921;-68
2024/03/20 02:32:06;;;;;;;41.10;16.47;;;-2.00;99.90;;;;;;4480121;27;657971;-69
2024/03/20 02:34:54;;;;;;;42.60;17.63;;;-2.00;99.90;;;;;;4463742;27;658968;-69
2024/03/20 02:37:41;;;;;;;38.83;18.17;;;-2.00;1.00;;;;;;4480882;27;658789;-69
2024/03/20 02:40:29;;;;;;;38.77;16.30;;;-1.90;99.90;;;;;;4456832;27;657808;-69
2024/03/20 02:43:17;;;;;;;40.07;16.97;;;-2.10;99.90;;;;;;4475082;27;658312;-68
2024/03/20 02:46:04;;;;;;;39.03;16.90;;;-2.20;99.90;;;;;;4460217;27;659145;-68
2024/03/20 02:48:51;;;;;;;37.83;16.50;;;-2.20;1.00;;;;;;4479793;27;659104;-69
2024/03/20 02:51:38;;;;;;;41.72;17.63;;;-2.30;1.00;;;;;;4453488;27;657973;-68
2024/03/20 02:54:26;;;;;;;38.73;18.00;;;-2.30;1.00;;;;;;4482370;27;658122;-68
2024/03/20 02:57:14;;;;;;;42.33;19.13;;;-2.30;99.90;;;;;;4458946;27;657383;-69
2024/03/20 03:00:03;;;;;;;49.88;20.67;;;-2.40;99.90;;;;;;4476034;27;659248;-69
2024/03/20 03:02:50;;;;;;;52.80;22.53;;;-2.40;99.90;;;;;;4455539;27;659157;-69
2024/03/20 03:05:37;;;;;;;57.13;25.80;;;-2.40;99.90;;;;;;4459738;27;658464;-69
2024/03/20 03:08:25;;;;;;;59.60;24.63;;;-2.50;1.00;;;;;;4478066;27;659942;-68
2024/03/20 03:11:12;;;;;;;44.97;20.43;;;-2.50;1.00;;;;;;4463851;27;658266;-69
2024/03/20 03:14:01;;;;;;;44.73;19.77;;;-2.50;1.00;;;;;;4485280;27;657994;-68
2024/03/20 03:16:48;;;;;;;48.17;20.87;;;-2.60;1.00;;;;;;4450980;27;658050;-68
2024/03/20 03:19:35;;;;;;;47.00;20.07;;;-2.60;99.90;;;;;;4478284;27;658213;-68
2024/03/20 03:22:22;;;;;;;49.53;22.60;;;-2.70;1.00;;;;;;4453285;27;658896;-69
2024/03/20 03:25:10;;;;;;;48.60;23.07;;;-2.60;1.00;;;;;;4475915;27;658628;-68
2024/03/20 03:27:57;;;;;;;46.17;20.50;;;-2.70;13.90;;;;;;4465596;27;657934;-69
2024/03/20 03:30:46;;;;;;;41.00;18.87;;;-2.60;1.00;;;;;;4476941;27;658588;-68
2024/03/20 03:33:33;;;;;;;38.83;17.87;;;-2.60;1.00;;;;;;4459103;27;657543;-69
2024/03/20 03:36:20;;;;;;;48.83;21.27;;;-2.60;1.00;;;;;;4473205;27;658686;-68
2024/03/20 03:39:08;;;;;;;42.67;18.97;;;-2.60;1.00;;;;;;4456187;27;657261;-68
2024/03/20 03:41:55;;;;;;;40.70;17.77;;;-2.70;99.90;;;;;;4480868;27;657390;-68
2024/03/20 03:44:43;;;;;;;40.33;17.25;;;-2.70;99.90;;;;;;4453439;27;659185;-69
2024/03/20 03:47:32;;;;;;;42.27;17.67;;;-2.70;99.90;;;;;;4473487;27;659044;-68
2024/03/20 03:50:19;;;;;;;38.70;16.57;;;-2.80;99.90;;;;;;4458188;27;658977;-69
2024/03/20 03:53:06;;;;;;;38.07;15.43;;;-2.80;99.90;;;;;;4473562;27;659280;-68
2024/03/20 03:55:54;;;;;;;36.00;16.27;;;-2.80;99.90;;;;;;4449314;27;659029;-68
2024/03/20 03:58:41;;;;;;;38.33;17.50;;;-2.90;99.90;;;;;;4463736;27;658861;-68
2024/03/20 04:01:28;;;;;;;46.03;19.80;;;-2.90;99.90;;;;;;4456214;27;658777;-68
2024/03/20 04:04:17;;;;;;;44.72;19.17;;;-2.90;99.90;;;;;;4477691;27;659024;-68
2024/03/20 04:07:04;;;;;;;48.30;20.07;;;-2.90;99.90;;;;;;4453319;27;658954;-68
2024/03/20 04:09:52;;;;;;;45.13;18.80;;;-2.80;1.00;;;;;;4476250;27;658254;-68
2024/03/20 04:12:39;;;;;;;43.97;18.80;;;-2.80;1.00;;;;;;4455592;27;658999;-68
2024/03/20 04:15:27;;;;;;;39.90;16.77;;;-2.80;1.00;;;;;;4481526;27;657323;-68
2024/03/20 04:18:17;;;;;;;43.60;18.13;;;-2.90;1.00;;;;;;4461682;27;657870;-68
2024/03/20 04:21:05;;;;;;;41.33;17.77;;;-2.90;99.90;;;;;;4456078;27;657862;-69
2024/03/20 04:23:53;;;;;;;38.87;17.23;;;-2.90;99.90;;;;;;4453548;27;659415;-69
2024/03/20 04:26:40;;;;;;;45.97;18.37;;;-2.90;99.90;;;;;;4478569;27;658647;-68
2024/03/20 04:29:27;;;;;;;46.47;19.03;;;-2.90;1.00;;;;;;4450707;27;659700;-69
2024/03/20 04:32:16;;;;;;;39.57;17.67;;;-2.90;1.00;;;;;;4477577;27;658134;-68
2024/03/20 04:35:03;;;;;;;42.37;17.67;;;-2.90;1.00;;;;;;4462040;27;658004;-68
2024/03/20 04:37:52;;;;;;;45.55;17.88;;;-2.90;1.00;;;;;;4481748;27;657706;-68
2024/03/20 04:40:39;;;;;;;47.83;18.37;;;-3.00;1.00;;;;;;4451828;27;658463;-69
2024/03/20 04:43:26;;;;;;;45.83;18.90;;;-2.90;1.00;;;;;;4476378;27;657610;-68
2024/03/20 04:46:13;;;;;;;49.07;19.10;;;-3.00;1.00;;;;;;4460625;27;657411;-69
2024/03/20 04:49:00;;;;;;;59.93;20.83;;;-3.00;1.00;;;;;;4475889;27;658588;-68
2024/03/20 04:51:48;;;;;;;75.33;27.77;;;-3.00;1.00;;;;;;4454674;27;657480;-68
2024/03/20 04:54:36;;;;;;;72.57;28.33;;;-2.90;99.00;;;;;;4473018;27;659142;-68
2024/03/20 04:57:23;;;;;;;61.63;24.95;;;-2.90;99.90;;;;;;4454109;27;658441;-68
2024/03/20 05:00:15;;;;;;;57.87;21.83;;;-2.90;99.90;;;;;;4462530;27;659331;-68
2024/03/20 05:03:03;;;;;;;55.60;22.20;;;-2.90;99.90;;;;;;4442788;27;658248;-69
2024/03/20 05:05:50;;;;;;;58.80;22.70;;;-2.90;99.90;;;;;;4469255;27;659791;-69
2024/03/20 05:08:37;;;;;;;62.87;22.63;;;-2.80;1.00;;;;;;4462703;27;658731;-69
2024/03/20 05:11:26;;;;;;;53.43;21.50;;;-2.70;1.00;;;;;;4479754;27;657693;-68
2024/03/20 05:14:14;;;;;;;46.40;19.60;;;-2.80;1.00;;;;;;4444957;27;657424;-68
2024/03/20 05:17:02;;;;;;;48.42;19.27;;;-2.70;1.00;;;;;;4482440;27;657541;-68
2024/03/20 05:19:49;;;;;;;68.80;25.97;;;-2.70;1.00;;;;;;4455634;27;658304;-68
2024/03/20 05:22:36;;;;;;;77.67;27.23;;;-2.60;1.00;;;;;;4473138;27;657358;-68
2024/03/20 05:25:22;;;;;;;75.00;27.53;;;-2.50;1.00;;;;;;4458780;27;657698;-69
2024/03/20 05:28:11;;;;;;;78.40;27.60;;;-2.40;1.00;;;;;;4471626;27;657530;-68
2024/03/20 05:30:57;;;;;;;83.53;29.57;;;-2.40;1.00;;;;;;4444654;27;658125;-69
2024/03/20 05:33:44;;;;;;;89.90;35.93;;;-2.30;1.00;;;;;;4472865;27;657066;-68
2024/03/20 05:36:30;;;;;;;81.87;33.07;;;-2.30;1.00;;;;;;4473910;27;657959;-69
2024/03/20 05:39:17;;;;;;;101.07;38.65;;;-2.20;1.00;;;;;;4449604;28;657352;-69
2024/03/20 05:42:04;;;;;;;91.37;33.80;;;-2.10;1.00;;;;;;4475572;28;659529;-69
2024/03/20 05:44:53;;;;;;;92.90;34.33;;;-2.00;1.00;;;;;;4470746;27;657676;-69
2024/03/20 05:47:39;;;;;;;136.73;43.43;;;-1.80;1.00;;;;;;4443992;28;658626;-68
2024/03/20 05:50:27;;;;;;;103.77;39.00;;;-1.70;1.00;;;;;;4475724;28;658871;-69
2024/03/20 05:53:14;;;;;;;114.53;42.33;;;-1.70;1.00;;;;;;4452381;28;659286;-69
2024/03/20 05:56:00;;;;;;;110.10;41.10;;;-1.60;1.00;;;;;;4469937;28;658492;-68
2024/03/20 05:58:47;;;;;;;115.03;41.27;;;-1.40;1.00;;;;;;4449403;28;659276;-69
2024/03/20 06:01:35;;;;;;;112.20;41.13;;;-1.20;1.00;;;;;;4470805;27;658643;-68
2024/03/20 06:04:22;;;;;;;135.43;48.95;;;-1.10;1.00;;;;;;4458209;28;659112;-69
2024/03/20 06:07:09;;;;;;;108.47;44.27;;;-1.00;1.00;;;;;;4466320;28;658995;-68
2024/03/20 06:09:56;;;;;;;100.13;40.10;;;-0.80;1.00;;;;;;4469156;28;659104;-69
2024/03/20 06:12:43;;;;;;;78.43;32.97;;;-0.60;99.90;;;;;;4443689;28;659567;-69
2024/03/20 06:15:29;;;;;;;83.57;33.20;;;-0.40;99.90;;;;;;4476302;28;659079;-68
2024/03/20 06:18:18;;;;;;;79.57;33.43;;;-0.10;99.90;;;;;;4470322;28;658580;-69
2024/03/20 06:21:06;;;;;;;91.43;34.60;;;0.10;99.90;;;;;;4444065;28;658961;-69
2024/03/20 06:23:53;;;;;;;96.40;33.83;;;0.30;93.10;;;;;;4452680;28;657544;-69
2024/03/20 06:26:39;;;;;;;91.43;33.97;;;0.50;1.00;;;;;;4471977;28;658641;-69
2024/03/20 06:29:26;;;;;;;74.13;30.70;;;0.60;1.00;;;;;;4466493;28;657124;-68
2024/03/20 06:32:12;;;;;;;69.75;29.15;;;0.80;1.00;;;;;;4450311;28;657215;-69
2024/03/20 06:35:03;;;;;;;78.20;30.67;;;1.00;99.90;;;;;;4476948;27;656315;-68
2024/03/20 06:37:49;;;;;;;70.77;29.73;;;1.20;29.80;;;;;;4456344;28;658230;-69
2024/03/20 06:40:37;;;;;;;67.72;29.50;;;1.40;32.30;;;;;;4469314;28;658048;-69
2024/03/20 06:43:24;;;;;;;62.53;27.00;;;1.60;1.00;;;;;;4454941;27;659233;-69
2024/03/20 06:46:11;;;;;;;61.90;27.37;;;1.80;1.00;;;;;;4471212;27;656906;-69
2024/03/20 06:48:58;;;;;;;69.67;28.10;;;1.80;1.00;;;;;;4451064;27;656427;-69
2024/03/20 06:51:49;;;;;;;61.40;27.67;;;2.00;1.00;;;;;;4478459;27;657931;-68
2024/03/20 06:54:36;;;;;;;60.50;25.97;;;2.10;1.00;;;;;;4449019;27;656486;-68
2024/03/20 06:57:23;;;;;;;54.80;24.53;;;2.30;99.90;;;;;;4455133;27;656716;-69
2024/03/20 07:00:17;;;;;;;54.00;24.60;;;2.40;1.00;;;;;;4479367;27;658215;-68
2024/03/20 07:03:04;;;;;;;52.77;25.33;;;2.50;99.90;;;;;;4448514;27;657083;-68
2024/03/20 07:05:51;;;;;;;45.67;19.37;;;2.70;99.90;;;;;;4462448;27;657972;-68
2024/03/20 07:08:40;;;;;;;48.83;20.70;;;3.00;83.10;;;;;;4437544;27;659126;-69
2024/03/20 07:11:27;;;;;;;48.85;21.35;;;3.10;99.90;;;;;;4446360;27;657915;-69
2024/03/20 07:14:14;;;;;;;43.20;19.43;;;3.40;99.90;;;;;;4460050;28;657610;-68
2024/03/20 07:17:00;;;;;;;46.63;21.23;;;3.50;99.90;;;;;;4458657;28;657627;-68
2024/03/20 07:19:52;;;;;;;35.72;15.48;;;3.70;43.70;;;;;;4440237;27;657522;-69
2024/03/20 07:22:38;;;;;;;29.83;13.73;;;3.90;11.70;;;;;;4443603;28;658630;-68
2024/03/20 07:25:27;;;;;;;35.33;16.70;;;4.00;99.90;;;;;;4456919;27;658368;-68
2024/03/20 07:28:13;;;;;;;32.53;15.70;;;4.00;1.00;;;;;;4431343;27;658814;-68
2024/03/20 07:31:01;;;;;;;41.37;18.67;;;4.20;1.00;;;;;;4455595;27;657828;-67
2024/03/20 07:33:47;;;;;;;36.00;16.43;;;4.40;50.40;;;;;;4440388;28;656894;-68
2024/03/20 07:36:34;;;;;;;41.43;17.43;;;4.60;1.00;;;;;;4457890;28;657705;-67
2024/03/20 07:39:20;;;;;;;36.40;18.20;;;4.70;1.00;;;;;;4457350;28;656419;-68
2024/03/20 07:42:09;;;;;;;34.53;15.47;;;4.80;1.00;;;;;;4444001;28;656959;-68
2024/03/20 07:44:57;;;;;;;35.97;16.57;;;4.90;99.90;;;;;;4467305;27;657256;-68
2024/03/20 07:47:44;;;;;;;33.37;13.03;;;5.00;99.90;;;;;;4444303;28;658237;-68
2024/03/20 07:50:31;;;;;;;33.27;15.43;;;5.30;1.00;;;;;;4450049;27;657787;-69
2024/03/20 07:53:18;;;;;;;26.43;12.77;;;5.40;1.00;;;;;;4427801;28;657187;-69
2024/03/20 07:56:05;;;;;;;36.57;16.93;;;5.80;99.90;;;;;;4461721;28;657804;-69
2024/03/20 07:58:54;;;;;;;31.97;16.27;;;5.70;99.90;;;;;;4444751;27;658078;-69
2024/03/20 08:01:40;;;;;;;34.60;16.07;;;5.90;1.00;;;;;;4459278;28;657840;-69
2024/03/20 08:04:27;;;;;;;36.70;15.23;;;6.30;1.00;;;;;;4451252;27;657496;-69
2024/03/20 08:07:14;;;;;;;31.90;15.73;;;6.60;1.00;;;;;;4480090;27;657359;-69
2024/03/20 08:10:01;;;;;;;32.83;16.53;;;6.80;99.90;;;;;;4476605;27;657495;-69
2024/03/20 08:12:47;;;;;;;31.43;15.87;;;7.00;99.90;;;;;;4455399;27;658450;-69
2024/03/20 08:15:36;;;;;;;34.60;15.90;;;7.20;1.00;;;;;;4477113;27;658005;-69
2024/03/20 08:18:23;;;;;;;32.45;15.40;;;7.40;1.00;;;;;;4445870;27;656949;-69
2024/03/20 08:21:11;;;;;;;31.07;15.53;;;7.40;99.90;;;;;;4478476;27;656704;-69
2024/03/20 08:23:58;;;;;;;30.50;13.97;;;7.20;99.90;;;;;;4456696;27;658192;-68
2024/03/20 08:26:45;;;;;;;29.20;14.23;;;6.60;99.90;;;;;;4472173;27;658203;-68
2024/03/20 08:29:31;;;;;;;30.03;13.97;;;6.60;99.90;;;;;;4461032;27;658269;-70
2024/03/20 08:32:20;;;;;;;29.87;14.57;;;7.20;1.00;;;;;;4479298;27;657697;-69
2024/03/20 08:35:07;;;;;;;32.80;14.67;;;7.40;99.90;;;;;;4458854;27;656304;-69
2024/03/20 08:37:55;;;;;;;30.87;14.33;;;7.50;99.90;;;;;;4475300;27;657556;-69
2024/03/20 08:40:42;;;;;;;27.73;13.13;;;7.20;1.00;;;;;;4475404;27;657996;-69
2024/03/20 08:43:28;;;;;;;30.40;13.90;;;7.50;1.00;;;;;;4449496;27;657817;-68
2024/03/20 08:46:16;;;;;;;27.15;13.38;;;7.70;99.90;;;;;;4474040;27;657089;-68
2024/03/20 08:49:04;;;;;;;28.33;12.07;;;8.20;99.90;;;;;;4456945;27;657419;-69
2024/03/20 08:51:51;;;;;;;26.03;12.43;;;8.40;9.30;;;;;;4472765;27;657953;-69
2024/03/20 08:54:43;;;;;;;31.40;14.07;;;8.80;1.00;;;;;;4458833;27;656448;-69
2024/03/20 08:57:30;;;;;;;24.00;13.00;;;8.30;1.00;;;;;;4448553;27;657198;-69
2024/03/20 09:00:19;;;;;;;25.90;11.50;;;8.70;1.00;;;;;;4460597;27;657170;-69
2024/03/20 09:03:06;;;;;;;26.60;12.53;;;9.10;1.00;;;;;;4474580;27;656750;-69
2024/03/20 09:05:54;;;;;;;30.80;14.53;;;9.10;1.00;;;;;;4461599;27;657117;-69
2024/03/20 09:08:42;;;;;;;25.33;12.83;;;9.60;1.00;;;;;;4472167;27;656435;-69
2024/03/20 09:11:28;;;;;;;27.63;12.20;;;9.50;1.00;;;;;;4452522;27;657819;-69
2024/03/20 09:14:15;;;;;;;26.70;12.77;;;9.90;1.00;;;;;;4476832;27;657268;-69
2024/03/20 09:17:02;;;;;;;29.15;12.93;;;10.10;1.00;;;;;;4447547;27;656757;-69
2024/03/20 09:19:49;;;;;;;26.87;12.43;;;10.20;1.00;;;;;;4475241;27;657473;-69
2024/03/20 09:22:37;;;;;;;31.07;13.73;;;10.40;1.00;;;;;;4479135;27;657526;-69
2024/03/20 09:25:24;;;;;;;29.70;13.70;;;10.70;1.00;;;;;;4453448;27;657978;-69
2024/03/20 09:28:11;;;;;;;29.70;13.10;;;9.90;1.00;;;;;;4463409;27;658774;-67
2024/03/20 09:30:57;;;;;;;25.67;12.73;;;9.20;1.00;;;;;;4454368;27;656608;-71
2024/03/20 09:33:44;;;;;;;29.07;13.00;;;9.70;1.00;;;;;;4480927;27;656445;-71
2024/03/20 09:36:30;;;;;;;26.20;13.60;;;10.30;1.00;;;;;;4470578;27;656875;-71
2024/03/20 09:39:19;;;;;;;29.20;13.87;;;11.20;1.00;;;;;;4448082;27;657402;-70
2024/03/20 09:42:06;;;;;;;28.53;14.23;;;11.40;1.00;;;;;;4473585;27;657951;-70
2024/03/20 09:44:53;;;;;;;30.33;15.00;;;10.80;1.00;;;;;;4446005;27;658266;-69
2024/03/20 09:47:39;;;;;;;29.57;14.53;;;10.50;1.00;;;;;;4470132;28;658165;-69
2024/03/20 09:50:28;;;;;;;26.17;14.33;;;10.50;1.00;;;;;;4466704;28;656968;-69
2024/03/20 09:53:14;;;;;;;25.40;13.27;;;11.60;1.00;;;;;;4445009;27;659236;-69
2024/03/20 09:56:09;;;;;;;25.10;13.80;;;12.20;1.00;;;;;;4465028;28;658403;-69
2024/03/20 09:58:55;;;;;;;30.20;14.17;;;12.70;1.00;;;;;;4442408;28;657676;-69
2024/03/20 10:01:42;;;;;;;23.30;12.80;;;12.90;1.00;;;;;;4453707;28;658638;-69
2024/03/20 10:04:29;;;;;;;21.97;8.50;;;12.60;1.00;;;;;;4469133;28;658113;-69
2024/03/20 10:07:16;;;;;;;25.07;12.13;;;11.90;1.00;;;;;;4473773;28;656701;-69
2024/03/20 10:10:04;;;;;;;27.90;13.73;;;11.00;1.00;;;;;;4451034;28;658005;-68
2024/03/20 10:12:53;;;;;;;26.63;13.20;;;11.40;1.00;;;;;;4472351;28;657796;-68
2024/03/20 10:15:39;;;;;;;28.83;15.10;;;11.70;1.00;;;;;;4449504;28;657450;-68
2024/03/20 10:18:27;;;;;;;31.30;14.30;;;11.40;1.00;;;;;;4472001;27;657284;-68
2024/03/20 10:21:13;;;;;;;32.70;15.47;;;12.00;1.00;;;;;;4450232;27;658160;-68
2024/03/20 10:24:00;;;;;;;30.83;14.43;;;12.10;1.00;;;;;;4476353;27;659713;-68
2024/03/20 10:26:48;;;;;;;27.67;14.33;;;12.00;1.00;;;;;;4458617;27;657684;-70
2024/03/20 10:29:38;;;;;;;25.83;13.50;;;12.30;1.00;;;;;;4472779;27;659406;-68
2024/03/20 10:32:25;;;;;;;29.83;13.17;;;12.80;1.00;;;;;;4442681;27;659217;-69
2024/03/20 10:35:13;;;;;;;20.93;11.27;;;12.20;1.00;;;;;;4463833;27;658049;-69
2024/03/20 10:38:00;;;;;;;23.77;11.67;;;12.30;1.00;;;;;;4457811;27;658260;-68
2024/03/20 10:40:48;;;;;;;21.90;10.57;;;12.20;1.00;;;;;;4479049;27;657950;-68
2024/03/20 10:43:35;;;;;;;17.73;8.93;;;12.00;1.00;;;;;;4445570;27;658944;-69
2024/03/20 10:46:24;;;;;;;18.30;10.10;;;11.60;1.00;;;;;;4466970;27;661518;-69
2024/03/20 10:49:11;;;;;;;18.37;9.37;;;12.50;1.00;;;;;;4480718;27;658195;-69
2024/03/20 10:51:58;;;;;;;20.40;10.57;;;13.30;1.00;;;;;;4453509;27;656922;-68
2024/03/20 10:54:45;;;;;;;22.40;9.70;;;13.10;1.00;;;;;;4471280;27;658589;-68
2024/03/20 10:57:32;;;;;;;12.47;5.10;;;12.50;1.00;;;;;;4458023;27;656863;-68
2024/03/20 11:00:19;;;;;;;29.13;11.13;;;12.20;1.00;;;;;;4478596;27;657692;-69
2024/03/20 11:03:38;;;;;;;25.43;11.50;;;12.40;1.00;;;;;;4476475;27;658286;-68
2024/03/20 11:06:41;;;;;;;23.03;11.67;;;12.70;1.00;;;;;;4444492;27;658758;-68
2024/03/20 11:09:30;;;;;;;24.80;12.63;;;12.70;1.00;;;;;;4453267;27;658294;-68
2024/03/20 11:12:26;;;;;;;23.90;10.67;;;12.10;1.00;;;;;;4469916;27;658458;-68
2024/03/20 11:15:15;;;;;;;24.60;13.30;;;12.20;1.00;;;;;;4419868;27;658599;-67
2024/03/20 11:18:09;;;;;;;26.47;12.23;;;11.70;1.00;;;;;;4467828;27;657575;-69
2024/03/20 11:20:59;;;;;;;25.93;12.97;;;11.20;1.00;;;;;;4446384;27;658049;-67
2024/03/20 11:23:47;;;;;;;24.13;12.40;;;12.20;1.00;;;;;;4446243;27;658422;-67
2024/03/20 11:26:34;;;;;;;28.70;11.93;;;12.90;1.00;;;;;;4448803;27;657624;-68
2024/03/20 11:29:21;;;;;;;19.20;9.17;;;13.50;1.00;;;;;;4475054;27;657512;-68
2024/03/20 11:32:12;;;;;;;22.53;8.40;;;13.00;1.00;;;;;;4445069;27;657005;-68
2024/03/20 11:34:59;;;;;;;17.27;9.70;;;13.00;1.00;;;;;;4454436;27;658086;-67
2024/03/20 11:37:47;;;;;;;21.43;11.53;;;12.00;1.00;;;;;;4480813;27;657074;-69
2024/03/20 11:40:35;;;;;;;21.50;10.57;;;12.60;1.00;;;;;;4451061;27;658109;-67
2024/03/20 11:43:24;;;;;;;9.73;4.07;;;13.30;1.00;;;;;;4469541;27;657652;-68
2024/03/20 11:46:11;;;;;;;12.50;6.33;;;13.30;1.00;;;;;;4457415;27;656025;-67
2024/03/20 11:48:59;;;;;;;13.20;6.17;;;12.00;1.00;;;;;;4446732;28;656262;-67
2024/03/20 11:51:45;;;;;;;18.63;8.63;;;11.80;1.00;;;;;;4478039;27;657381;-68
2024/03/20 11:54:34;;;;;;;5.23;2.87;;;12.00;1.00;;;;;;4456437;27;657233;-68
2024/03/20 11:57:20;;;;;;;18.20;10.03;;;11.70;1.00;;;;;;4474598;27;655026;-68
2024/03/20 12:00:11;;;;;;;23.07;10.03;;;12.50;1.00;;;;;;4457390;27;657935;-68
2024/03/20 12:02:58;;;;;;;14.97;7.47;;;12.80;1.00;;;;;;4457289;27;657830;-68
2024/03/20 12:05:45;;;;;;;22.70;11.00;;;13.30;1.00;;;;;;4481173;27;656988;-68
2024/03/20 12:08:31;;;;;;;26.20;11.37;;;13.90;1.00;;;;;;4452798;27;658252;-69
2024/03/20 12:11:24;;;;;;;19.60;10.60;;;14.00;1.00;;;;;;4478174;27;658106;-68
2024/03/20 12:14:11;;;;;;;17.93;8.97;;;14.10;1.00;;;;;;4452177;27;657847;-67
2024/03/20 12:16:58;;;;;;;14.93;8.30;;;12.70;1.00;;;;;;4461912;27;656252;-68
2024/03/20 12:19:44;;;;;;;10.17;4.87;;;12.60;1.00;;;;;;4474734;27;657743;-67
2024/03/20 12:22:32;;;;;;;15.97;8.23;;;12.70;1.00;;;;;;4472652;27;657099;-68
2024/03/20 12:25:18;;;;;;;8.73;4.17;;;13.10;1.00;;;;;;4453176;27;656884;-67
2024/03/20 12:28:07;;;;;;;20.53;6.00;;;12.70;1.00;;;;;;4481006;27;656274;-67
2024/03/20 12:30:53;;;;;;;19.70;9.83;;;12.80;1.00;;;;;;4455655;27;656646;-68
2024/03/20 12:33:41;;;;;;;19.53;10.53;;;12.40;1.00;;;;;;4480039;27;657130;-67
2024/03/20 12:36:29;;;;;;;22.53;11.20;;;12.70;1.00;;;;;;4453923;27;658180;-67
2024/03/20 12:39:16;;;;;;;26.93;12.10;;;12.80;1.00;;;;;;4481596;27;657747;-67
2024/03/20 12:42:02;;;;;;;15.43;6.33;;;12.80;1.00;;;;;;4460607;27;657579;-67
2024/03/20 12:44:51;;;;;;;22.50;11.60;;;12.40;1.00;;;;;;4485743;27;656382;-68
2024/03/20 12:47:37;;;;;;;21.70;9.27;;;13.30;1.00;;;;;;4448973;27;657793;-68
2024/03/20 12:50:24;;;;;;;29.13;14.07;;;12.20;1.00;;;;;;4469338;27;655939;-67
2024/03/20 12:53:15;;;;;;;24.90;12.10;;;12.00;1.00;;;;;;4476854;27;658182;-67
2024/03/20 12:56:03;;;;;;;32.80;13.73;;;12.50;1.00;;;;;;4470206;27;657579;-68
2024/03/20 12:58:49;;;;;;;28.10;13.17;;;13.20;1.00;;;;;;4478933;27;659279;-67
2024/03/20 13:01:38;;;;;;;21.83;10.57;;;13.80;1.00;;;;;;4470429;27;658441;-67
2024/03/20 13:04:24;;;;;;;22.60;10.27;;;13.10;1.00;;;;;;4447216;27;658798;-67
2024/03/20 13:07:14;;;;;;;25.00;12.17;;;13.30;1.00;;;;;;4470661;27;657895;-67
2024/03/20 13:10:00;;;;;;;24.30;10.83;;;13.50;1.00;;;;;;4457875;27;658503;-67
2024/03/20 13:12:48;;;;;;;25.40;12.87;;;13.40;1.00;;;;;;4465063;27;658269;-68
2024/03/20 13:15:40;;;;;;;27.17;12.40;;;13.10;1.00;;;;;;4464299;27;658880;-69
2024/03/20 13:18:32;;;;;;;25.43;12.33;;;12.90;1.00;;;;;;4444785;27;657686;-68
2024/03/20 13:21:24;;;;;;;23.30;12.80;;;13.00;1.00;;;;;;4454475;27;657912;-68
2024/03/20 13:24:12;;;;;;;23.30;9.13;;;13.30;1.00;;;;;;4450594;27;658325;-69
2024/03/20 13:26:59;;;;;;;27.93;11.07;;;13.50;1.00;;;;;;4449976;27;657307;-67
2024/03/20 13:29:49;;;;;;;20.53;9.90;;;13.20;1.00;;;;;;4476733;27;657134;-68
2024/03/20 13:32:35;;;;;;;23.10;10.83;;;14.10;1.00;;;;;;4452286;27;657404;-68
2024/03/20 13:35:24;;;;;;;21.33;10.98;;;14.60;1.00;;;;;;4453729;27;657700;-67
2024/03/20 13:38:19;;;;;;;20.57;10.67;;;14.70;1.00;;;;;;4470243;27;657688;-67
2024/03/20 13:41:23;;;;;;;23.33;10.40;;;15.90;1.00;;;;;;4448348;27;658419;-67
2024/03/20 13:44:15;;;;;;;19.07;9.73;;;14.90;1.00;;;;;;4441631;28;657969;-67
2024/03/20 13:47:03;;;;;;;24.53;11.47;;;15.10;1.00;;;;;;4438563;27;656914;-68
2024/03/20 13:49:50;;;;;;;19.52;10.80;;;14.40;1.00;;;;;;4476668;27;658085;-68
2024/03/20 13:52:38;;;;;;;18.37;10.47;;;14.20;1.00;;;;;;4463078;27;658912;-68
2024/03/20 13:55:25;;;;;;;20.27;10.50;;;15.30;1.00;;;;;;4477351;27;659100;-67
2024/03/20 13:58:12;;;;;;;20.87;9.70;;;15.20;1.00;;;;;;4470284;27;658636;-68
2024/03/20 14:00:59;;;;;;;20.20;9.57;;;15.40;1.00;;;;;;4486389;27;656048;-67
2024/03/20 14:03:48;;;;;;;18.23;9.63;;;15.80;1.00;;;;;;4466230;27;656279;-67
2024/03/20 14:06:35;;;;;;;16.17;9.50;;;15.50;1.00;;;;;;4442472;27;656934;-67
2024/03/20 14:09:25;;;;;;;17.55;8.25;;;14.40;1.00;;;;;;4445627;28;657030;-67
2024/03/20 14:12:16;;;;;;;21.52;9.13;;;14.30;1.00;;;;;;4443044;27;656851;-68